createdAt,value
2018-01-16T00:01:53.580Z,7.50
2018-01-16T00:04:30.237Z,7.50
2018-01-16T00:07:07.769Z,7.40
2018-01-16T00:10:04.513Z,7.30
2018-01-16T00:12:41.557Z,7.20
2018-01-16T00:15:19.466Z,7.10
2018-01-16T00:17:51.886Z,7.00
2018-01-16T00:20:24.939Z,6.90
2018-01-16T00:22:57.618Z,6.90
2018-01-16T00:25:35.829Z,7.00
2018-01-16T00:28:08.098Z,7.00
2018-01-16T00:30:39.350Z,7.00
2018-01-16T00:33:09.932Z,6.90
2018-01-16T00:35:40.699Z,6.90
2018-01-16T00:38:11.057Z,6.90
2018-01-16T00:40:41.578Z,6.80
2018-01-16T00:43:12.507Z,6.80
2018-01-16T00:45:42.648Z,6.80
2018-01-16T00:48:13.485Z,6.80
2018-01-16T00:55:23.727Z,6.80
2018-01-16T00:57:53.780Z,6.70
2018-01-16T01:00:24.109Z,6.80
2018-01-16T01:04:00.253Z,6.80
2018-01-16T01:06:32.686Z,6.80
2018-01-16T01:09:05.181Z,6.80
2018-01-16T01:11:36.927Z,6.70
2018-01-16T01:14:08.533Z,6.70
2018-01-16T01:16:39.867Z,6.70
2018-01-16T01:19:11.883Z,6.70
2018-01-16T01:21:44.363Z,6.70
2018-01-16T01:24:16.583Z,6.70
2018-01-16T01:26:47.783Z,6.80
2018-01-16T01:29:18.452Z,6.70
2018-01-16T01:31:49.154Z,6.80
2018-01-16T01:34:20.012Z,6.90
2018-01-16T01:36:55.255Z,6.90
2018-01-16T01:39:25.385Z,6.90
2018-01-16T01:41:56.019Z,6.90
2018-01-16T01:44:26.498Z,6.80
2018-01-16T01:46:57.177Z,6.80
2018-01-16T01:49:27.098Z,6.80
2018-01-16T01:51:57.348Z,6.80
2018-01-16T01:54:29.217Z,6.80
2018-01-16T01:56:59.245Z,6.80
2018-01-16T01:59:30.093Z,6.90
2018-01-16T02:02:01.279Z,6.90
2018-01-16T02:04:32.180Z,6.80
2018-01-16T02:07:03.555Z,6.80
2018-01-16T02:09:34.662Z,6.90
2018-01-16T02:12:05.328Z,6.90
2018-01-16T02:14:36.664Z,6.90
2018-01-16T02:17:07.659Z,6.80
2018-01-16T02:19:37.642Z,6.80
2018-01-16T02:22:08.389Z,6.90
2018-01-16T02:24:38.483Z,6.90
2018-01-16T02:27:08.409Z,6.90
2018-01-16T02:29:39.236Z,6.90
2018-01-16T02:32:10.503Z,6.80
2018-01-16T02:34:48.178Z,6.90
2018-01-16T02:37:20.682Z,6.80
2018-01-16T02:39:52.116Z,6.80
2018-01-16T02:42:25.090Z,6.80
2018-01-16T02:44:55.838Z,6.70
2018-01-16T02:47:26.007Z,6.70
2018-01-16T02:49:57.359Z,6.70
2018-01-16T02:52:27.514Z,6.60
2018-01-16T02:54:58.599Z,6.60
2018-01-16T02:57:28.782Z,6.60
2018-01-16T02:59:58.897Z,6.60
2018-01-16T03:02:29.323Z,6.60
2018-01-16T03:04:59.182Z,6.60
2018-01-16T03:07:29.044Z,6.60
2018-01-16T03:10:00.094Z,6.60
2018-01-16T03:12:30.429Z,6.70
2018-01-16T03:15:00.338Z,6.70
2018-01-16T03:17:31.296Z,6.70
2018-01-16T03:20:06.197Z,6.70
2018-01-16T03:22:39.616Z,6.70
2018-01-16T03:25:12.687Z,6.80
2018-01-16T03:27:42.570Z,6.80
2018-01-16T03:30:21.228Z,6.80
2018-01-16T03:32:59.961Z,6.80
2018-01-16T03:35:30.092Z,6.80
2018-01-16T03:38:00.499Z,6.60
2018-01-16T03:40:30.834Z,6.60
2018-01-16T03:43:00.565Z,6.60
2018-01-16T03:45:30.959Z,6.60
2018-01-16T03:48:00.570Z,6.60
2018-01-16T03:50:30.539Z,6.60
2018-01-16T03:53:00.766Z,6.60
2018-01-16T03:55:31.236Z,6.60
2018-01-16T03:58:01.649Z,6.60
2018-01-16T04:00:31.842Z,6.60
2018-01-16T04:03:02.043Z,6.70
2018-01-16T04:05:32.758Z,6.70
2018-01-16T04:08:04.108Z,6.80
2018-01-16T04:10:34.031Z,6.70
2018-01-16T04:13:04.590Z,6.70
2018-01-16T04:15:34.495Z,6.70
2018-01-16T04:18:05.283Z,6.60
2018-01-16T04:20:35.731Z,6.40
2018-01-16T04:23:06.864Z,6.30
2018-01-16T04:25:36.705Z,6.30
2018-01-16T04:28:07.908Z,6.20
2018-01-16T04:30:38.037Z,6.20
2018-01-16T04:33:09.869Z,6.30
2018-01-16T04:35:40.094Z,6.30
2018-01-16T04:38:10.035Z,6.30
2018-01-16T04:40:40.178Z,6.20
2018-01-16T04:43:11.228Z,6.10
2018-01-16T04:45:42.920Z,6.10
2018-01-16T04:48:13.213Z,6.10
2018-01-16T04:50:44.350Z,6.10
2018-01-16T04:53:14.235Z,6.10
2018-01-16T04:55:45.004Z,6.10
2018-01-16T04:58:17.677Z,6.10
2018-01-16T05:00:50.198Z,6.10
2018-01-16T05:03:22.528Z,6.10
2018-01-16T05:05:52.552Z,6.00
2018-01-16T05:08:24.066Z,5.90
2018-01-16T05:10:53.956Z,6.00
2018-01-16T05:13:24.746Z,5.90
2018-01-16T05:15:59.789Z,5.90
2018-01-16T05:18:31.399Z,5.90
2018-01-16T05:21:03.396Z,6.00
2018-01-16T05:23:34.816Z,6.00
2018-01-16T05:26:07.567Z,6.00
2018-01-16T05:28:39.065Z,6.00
2018-01-16T05:31:09.460Z,6.10
2018-01-16T05:33:40.666Z,6.10
2018-01-16T05:36:13.238Z,6.10
2018-01-16T05:38:43.818Z,6.20
2018-01-16T05:41:16.287Z,6.30
2018-01-16T05:43:46.219Z,6.30
2018-01-16T05:46:18.713Z,6.30
2018-01-16T05:48:48.627Z,6.30
2018-01-16T05:51:18.406Z,6.40
2018-01-16T05:53:49.385Z,6.40
2018-01-16T05:56:19.569Z,6.40
2018-01-16T05:58:52.262Z,6.40
2018-01-16T06:01:35.308Z,6.40
2018-01-16T06:04:23.238Z,6.40
2018-01-16T06:06:54.645Z,6.50
2018-01-16T06:09:26.811Z,6.50
2018-01-16T06:11:57.497Z,6.60
2018-01-16T06:14:41.041Z,6.60
2018-01-16T06:17:12.018Z,6.70
2018-01-16T06:19:44.960Z,6.80
2018-01-16T06:22:16.451Z,6.80
2018-01-16T06:24:48.215Z,6.80
2018-01-16T06:27:19.418Z,6.80
2018-01-16T06:30:06.024Z,6.90
2018-01-16T06:32:37.104Z,6.90
2018-01-16T06:35:10.911Z,7.10
2018-01-16T06:37:41.949Z,7.10
2018-01-16T06:40:12.618Z,7.20
2018-01-16T06:42:43.902Z,7.10
2018-01-16T06:45:14.252Z,7.10
2018-01-16T06:47:44.533Z,7.10
2018-01-16T06:50:18.344Z,7.10
2018-01-16T06:52:57.244Z,7.10
2018-01-16T06:55:34.583Z,7.00
2018-01-16T06:58:09.223Z,6.90
2018-01-16T07:00:39.824Z,6.80
2018-01-16T07:03:10.207Z,6.70
2018-01-16T07:05:44.729Z,6.70
2018-01-16T07:08:15.470Z,6.70
2018-01-16T07:10:45.270Z,6.70
2018-01-16T07:13:15.370Z,6.70
2018-01-16T07:15:46.214Z,6.70
2018-01-16T07:18:16.116Z,6.70
2018-01-16T07:20:48.633Z,6.70
2018-01-16T07:23:18.979Z,6.70
2018-01-16T07:28:59.938Z,6.70
2018-01-16T07:31:30.200Z,6.70
2018-01-16T07:34:00.554Z,6.70
2018-01-16T07:36:31.940Z,6.70
2018-01-16T07:39:03.062Z,6.70
2018-01-16T07:41:33.565Z,6.70
2018-01-16T07:44:19.952Z,6.60
2018-01-16T07:47:06.159Z,6.70
2018-01-16T07:49:37.101Z,6.70
2018-01-16T07:52:07.885Z,6.70
2018-01-16T07:54:38.192Z,6.80
2018-01-16T07:57:08.595Z,6.90
2018-01-16T07:59:39.762Z,6.90
2018-01-16T08:02:12.956Z,6.90
2018-01-16T08:04:43.138Z,6.90
2018-01-16T08:07:14.695Z,7.00
2018-01-16T08:09:46.391Z,7.00
2018-01-16T08:12:21.699Z,7.10
2018-01-16T08:14:56.825Z,7.10
2018-01-16T08:17:31.849Z,7.00
2018-01-16T08:20:02.996Z,6.90
2018-01-16T08:22:33.391Z,6.90
2018-01-16T08:25:04.570Z,6.90
2018-01-16T08:27:35.351Z,6.90
2018-01-16T08:30:11.191Z,7.00
2018-01-16T08:32:41.724Z,7.00
2018-01-16T08:35:11.588Z,7.10
2018-01-16T08:37:42.460Z,7.10
2018-01-16T08:42:59.546Z,7.20
2018-01-16T08:45:29.564Z,7.20
2018-01-16T08:48:01.329Z,7.30
2018-01-16T08:50:31.621Z,7.30
2018-01-16T08:53:01.800Z,7.40
2018-01-16T08:55:32.597Z,7.50
2018-01-16T08:58:03.783Z,7.50
2018-01-16T09:00:34.391Z,7.50
2018-01-16T09:03:05.911Z,7.60
2018-01-16T09:05:36.899Z,7.60
2018-01-16T09:08:07.808Z,7.60
2018-01-16T09:10:38.315Z,7.60
2018-01-16T09:13:08.512Z,7.60
2018-01-16T09:15:39.432Z,7.60
2018-01-16T09:18:10.029Z,7.70
2018-01-16T09:20:41.567Z,7.90
2018-01-16T09:23:12.769Z,7.80
2018-01-16T09:25:50.007Z,7.90
2018-01-16T09:28:31.412Z,7.80
2018-01-16T09:31:02.670Z,7.80
2018-01-16T09:33:45.187Z,7.90
2018-01-16T09:36:15.529Z,7.90
2018-01-16T09:38:47.426Z,8.00
2018-01-16T09:41:18.355Z,7.90
2018-01-16T09:43:52.975Z,8.00
2018-01-16T09:46:23.973Z,8.00
2018-01-16T09:48:56.470Z,8.10
2018-01-16T09:51:27.040Z,8.10
2018-01-16T09:54:00.931Z,8.10
2018-01-16T09:56:37.527Z,8.10
2018-01-16T09:59:08.445Z,8.10
2018-01-16T10:01:38.949Z,8.00
2018-01-16T10:04:10.508Z,8.00
2018-01-16T10:06:41.917Z,7.90
2018-01-16T10:09:15.464Z,7.80
2018-01-16T10:11:46.743Z,7.60
2018-01-16T10:14:23.597Z,7.60
2018-01-16T10:16:55.872Z,7.50
2018-01-16T10:19:31.143Z,7.40
2018-01-16T10:22:03.932Z,7.40
2018-01-16T10:24:38.999Z,7.40
2018-01-16T10:27:12.222Z,7.40
2018-01-16T10:29:44.201Z,7.50
2018-01-16T10:32:15.214Z,7.40
2018-01-16T10:34:56.317Z,7.50
2018-01-16T10:40:11.823Z,7.40
2018-01-16T10:42:44.790Z,7.40
2018-01-16T10:45:17.198Z,7.40
2018-01-16T10:47:51.811Z,7.30
2018-01-16T10:53:35.056Z,7.40
2018-01-16T10:56:14.482Z,7.40
2018-01-16T10:58:49.009Z,7.40
2018-01-16T11:02:15.620Z,7.50
2018-01-16T11:04:55.944Z,7.30
2018-01-16T11:07:31.594Z,5.70
2018-01-16T11:10:03.050Z,5.70
2018-01-16T11:12:34.076Z,5.40
2018-01-16T11:15:09.478Z,5.50
2018-01-16T11:17:39.979Z,5.40
2018-01-16T11:20:33.054Z,5.60
2018-01-16T11:23:26.786Z,5.70
2018-01-16T11:26:02.278Z,5.90
2018-01-16T11:28:34.112Z,5.90
2018-01-16T11:31:10.186Z,5.90
2018-01-16T11:33:43.251Z,5.90
2018-01-16T11:36:48.686Z,5.70
2018-01-16T11:39:27.204Z,5.70
2018-01-16T11:41:58.764Z,5.80
2018-01-16T11:44:29.585Z,5.80
2018-01-16T11:47:00.983Z,5.90
2018-01-16T11:49:31.861Z,5.90
2018-01-16T11:52:03.690Z,5.90
2018-01-16T11:54:34.461Z,5.90
2018-01-16T11:57:08.916Z,5.70
2018-01-16T11:59:42.935Z,5.60
2018-01-16T12:02:17.419Z,5.40
2018-01-16T12:04:49.844Z,5.30
2018-01-16T12:07:49.868Z,5.30
2018-01-16T12:10:20.341Z,5.10
2018-01-16T12:12:51.189Z,4.70
2018-01-16T12:15:23.354Z,4.30
2018-01-16T12:17:55.319Z,4.10
2018-01-16T12:20:29.677Z,4.10
2018-01-16T12:23:01.085Z,4.10
2018-01-16T12:25:32.733Z,4.10
2018-01-16T12:28:13.188Z,4.10
2018-01-16T12:30:53.654Z,4.10
2018-01-16T12:33:25.421Z,4.10
2018-01-16T12:36:04.431Z,4.20
2018-01-16T12:38:38.050Z,4.10
2018-01-16T12:41:15.884Z,4.10
2018-01-16T12:43:54.131Z,3.90
2018-01-16T12:46:25.855Z,3.70
2018-01-16T12:49:00.021Z,3.40
2018-01-16T12:51:32.811Z,3.50
2018-01-16T12:54:07.238Z,3.60
2018-01-16T12:56:38.576Z,3.80
2018-01-16T12:59:10.149Z,3.80
2018-01-16T13:01:49.742Z,3.90
2018-01-16T13:07:48.148Z,4.00
2018-01-16T13:15:58.238Z,4.10
2018-01-16T13:18:42.587Z,4.10
2018-01-16T13:21:25.037Z,4.30
2018-01-16T13:23:58.703Z,4.20
2018-01-16T13:26:42.372Z,4.30
2018-01-16T13:29:15.837Z,4.30
2018-01-16T13:32:15.137Z,4.30
2018-01-16T13:34:51.625Z,4.40
2018-01-16T13:37:30.603Z,4.30
2018-01-16T13:42:53.292Z,3.90
2018-01-16T13:45:34.219Z,3.70
2018-01-16T13:48:15.710Z,3.50
2018-01-16T13:50:50.686Z,3.40
2018-01-16T13:56:10.596Z,3.50
2018-01-16T13:58:49.980Z,3.40
2018-01-16T14:01:25.275Z,3.50
2018-01-16T14:04:03.806Z,4.10
2018-01-16T14:06:35.318Z,4.60
2018-01-16T14:09:09.918Z,4.60
2018-01-16T14:11:48.874Z,4.50
2018-01-16T14:14:31.238Z,4.30
2018-01-16T14:17:17.472Z,4.50
2018-01-16T14:23:12.001Z,6.40
2018-01-16T14:25:47.627Z,7.40
2018-01-16T14:28:36.020Z,7.40
2018-01-16T14:31:11.834Z,7.70
2018-01-16T14:33:45.514Z,7.90
2018-01-16T14:36:21.093Z,7.20
2018-01-16T14:38:59.705Z,6.40
2018-01-16T14:41:38.152Z,6.00
2018-01-16T14:46:54.587Z,5.50
2018-01-16T14:49:32.442Z,5.40
2018-01-16T14:52:07.278Z,5.20
2018-01-16T14:55:09.529Z,5.20
2018-01-16T14:57:49.690Z,5.30
2018-01-16T15:00:31.165Z,5.20
2018-01-16T15:03:13.634Z,5.10
2018-01-16T15:05:44.844Z,5.20
2018-01-16T15:08:20.375Z,5.10
2018-01-16T15:10:51.945Z,4.70
2018-01-16T15:13:22.790Z,4.70
2018-01-16T15:15:59.649Z,4.60
2018-01-16T15:21:16.764Z,4.50
2018-01-16T15:23:55.312Z,4.50
2018-01-16T15:26:31.189Z,4.40
2018-01-16T15:29:03.472Z,4.50
2018-01-16T15:31:34.921Z,4.60
2018-01-16T15:34:07.063Z,4.60
2018-01-16T15:40:47.192Z,4.80
2018-01-16T15:43:19.389Z,4.80
2018-01-16T15:45:53.578Z,4.90
2018-01-16T15:48:33.973Z,4.70
2018-01-16T15:51:12.409Z,4.60
2018-01-16T15:53:45.724Z,4.60
2018-01-16T15:56:19.853Z,4.50
2018-01-16T15:58:59.232Z,4.40
2018-01-16T16:01:33.309Z,4.40
2018-01-16T16:04:19.207Z,4.30
2018-01-16T16:07:07.393Z,4.20
2018-01-16T16:09:48.999Z,4.10
2018-01-16T16:15:14.367Z,4.20
2018-01-16T16:17:55.782Z,4.30
2018-01-16T16:20:42.343Z,4.30
2018-01-16T16:23:32.833Z,4.40
2018-01-16T16:26:09.710Z,4.40
2018-01-16T16:28:41.469Z,4.40
2018-01-16T16:31:21.165Z,4.50
2018-01-16T16:33:53.991Z,4.50
2018-01-16T16:36:31.266Z,4.60
2018-01-16T16:39:07.235Z,4.50
2018-01-16T16:41:56.311Z,4.50
2018-01-16T16:44:50.051Z,4.60
2018-01-16T16:47:27.714Z,4.60
2018-01-16T16:50:04.541Z,4.60
2018-01-16T16:52:46.433Z,4.60
2018-01-16T16:55:29.116Z,4.70
2018-01-16T17:04:31.362Z,4.80
2018-01-16T17:07:06.275Z,4.90
2018-01-16T17:13:00.638Z,5.00
2018-01-16T17:15:33.373Z,5.00
2018-01-16T17:18:19.918Z,4.90
2018-01-16T17:21:01.119Z,4.90
2018-01-16T17:23:40.143Z,4.90
2018-01-16T17:26:12.785Z,4.90
2018-01-16T17:29:02.053Z,4.90
2018-01-16T17:31:33.581Z,4.90
2018-01-16T17:34:41.866Z,5.00
2018-01-16T17:40:37.158Z,4.80
2018-01-16T17:43:11.803Z,4.50
2018-01-16T17:45:57.473Z,4.40
2018-01-16T17:48:35.520Z,4.30
2018-01-16T17:51:13.045Z,4.40
2018-01-16T17:53:49.601Z,4.40
2018-01-16T17:59:11.875Z,4.60
2018-01-16T18:01:47.204Z,4.60
2018-01-16T18:04:21.442Z,4.50
2018-01-16T18:06:57.479Z,4.40
2018-01-16T18:12:28.738Z,4.40
2018-01-16T18:15:04.496Z,4.30
2018-01-16T18:18:09.771Z,4.30
2018-01-16T18:20:44.658Z,4.30
2018-01-16T18:26:02.822Z,4.30
2018-01-16T18:28:50.026Z,4.30
2018-01-16T18:31:44.754Z,4.30
2018-01-16T18:38:59.736Z,4.50
2018-01-16T18:41:43.038Z,4.40
2018-01-16T18:47:21.652Z,4.50
2018-01-16T18:50:21.458Z,4.60
2018-01-16T18:53:13.602Z,4.70
2018-01-16T18:55:49.804Z,4.70
2018-01-16T18:58:35.993Z,4.70
2018-01-16T19:01:14.839Z,4.70
2018-01-16T19:03:48.997Z,4.70
2018-01-16T19:06:39.762Z,4.60
2018-01-16T19:09:11.624Z,4.60
2018-01-16T19:20:50.530Z,4.60
2018-01-16T19:26:43.993Z,4.60
2018-01-16T19:29:32.734Z,4.50
2018-01-16T19:32:10.831Z,4.50
2018-01-16T19:34:56.329Z,4.60
2018-01-16T19:37:43.994Z,4.40
2018-01-16T19:41:00.167Z,4.40
2018-01-16T19:47:11.061Z,4.40
2018-01-16T19:50:24.805Z,4.50
2018-01-16T19:56:09.235Z,4.20
2018-01-16T20:01:39.926Z,4.30
2018-01-16T20:04:42.514Z,4.30
2018-01-16T20:07:31.970Z,4.30
2018-01-16T20:10:08.810Z,4.20
2018-01-16T20:12:42.226Z,4.20
2018-01-16T20:15:19.721Z,4.20
2018-01-16T20:17:52.357Z,4.30
2018-01-16T20:20:29.030Z,4.30
2018-01-16T20:25:54.703Z,4.40
2018-01-16T20:28:27.276Z,4.40
2018-01-16T20:31:00.667Z,4.50
2018-01-16T20:33:32.864Z,4.50
2018-01-16T20:36:10.471Z,4.50
2018-01-16T20:38:45.904Z,4.50
2018-01-16T20:41:22.370Z,4.50
2018-01-16T20:44:03.278Z,4.50
2018-01-16T20:46:36.151Z,4.50
2018-01-16T20:49:11.589Z,4.50
2018-01-16T20:51:45.675Z,4.50
2018-01-16T20:54:20.992Z,4.50
2018-01-16T20:57:07.291Z,4.40
2018-01-16T20:59:43.434Z,4.40
2018-01-16T21:02:24.036Z,4.40
2018-01-16T21:05:05.140Z,4.50
2018-01-16T21:08:03.590Z,4.50
2018-01-16T21:10:40.319Z,4.40
2018-01-16T21:13:10.727Z,4.30
2018-01-16T21:15:41.852Z,4.40
2018-01-16T21:18:14.572Z,4.30
2018-01-16T21:20:47.272Z,4.30
2018-01-16T21:23:19.900Z,4.20
2018-01-16T21:26:00.906Z,4.40
2018-01-16T21:28:39.321Z,4.40
2018-01-16T21:31:22.496Z,4.40
2018-01-16T21:34:15.212Z,4.40
2018-01-16T21:36:49.967Z,4.30
2018-01-16T21:39:26.663Z,4.30
2018-01-16T21:42:00.604Z,4.30
2018-01-16T21:44:36.469Z,4.30
2018-01-16T21:47:11.546Z,4.30
2018-01-16T21:49:42.481Z,4.40
2018-01-16T21:52:22.464Z,4.60
2018-01-16T21:55:03.740Z,4.70
2018-01-16T21:57:36.369Z,4.70
2018-01-16T22:00:15.083Z,4.80
2018-01-16T22:02:47.993Z,4.70
2018-01-16T22:05:20.187Z,4.60
2018-01-16T22:07:53.201Z,4.60
2018-01-16T22:10:29.500Z,4.70
2018-01-16T22:13:12.748Z,4.70
2018-01-16T22:15:49.832Z,4.70
2018-01-16T22:18:21.461Z,4.80
2018-01-16T22:20:52.901Z,4.90
2018-01-16T22:23:23.982Z,4.80
2018-01-16T22:25:57.435Z,4.80
2018-01-16T22:28:30.227Z,4.90
2018-01-16T22:31:04.361Z,5.00
2018-01-16T22:33:42.461Z,5.00
2018-01-16T22:36:14.933Z,5.00
2018-01-16T22:38:53.506Z,5.00
2018-01-16T22:41:24.328Z,5.10
2018-01-16T22:43:59.959Z,5.10
2018-01-16T22:46:35.893Z,5.10
2018-01-16T22:54:20.736Z,5.10
2018-01-16T22:56:51.674Z,5.10
2018-01-16T22:59:26.839Z,5.30
2018-01-16T23:02:03.737Z,5.30
2018-01-16T23:04:45.022Z,5.30
2018-01-16T23:10:08.402Z,5.30
2018-01-16T23:12:39.723Z,5.30
2018-01-16T23:15:15.063Z,5.30
2018-01-16T23:17:53.286Z,5.30
2018-01-16T23:20:56.117Z,5.30
2018-01-16T23:23:30.222Z,5.20
2018-01-16T23:26:04.574Z,5.30
2018-01-16T23:28:47.541Z,5.30
2018-01-16T23:31:33.766Z,5.30
2018-01-16T23:40:30.781Z,5.00
2018-01-16T23:43:15.458Z,5.00
2018-01-16T23:46:05.783Z,4.90
2018-01-16T23:48:41.894Z,4.80
2018-01-16T23:53:52.414Z,4.80
2018-01-16T23:56:25.828Z,4.80
2018-01-16T23:58:58.144Z,4.80
